createdAt,value
2022-10-31T00:01:23.893Z,58.10
2022-10-31T00:03:51.728Z,61.50
2022-10-31T00:06:19.812Z,52.80
2022-10-31T00:08:49.032Z,56.00
2022-10-31T00:11:16.909Z,60.90
2022-10-31T00:13:44.711Z,46.80
2022-10-31T00:16:20.898Z,53.40
2022-10-31T00:18:53.409Z,58.70
2022-10-31T00:21:22.353Z,54.50
2022-10-31T00:23:50.345Z,58.30
2022-10-31T00:26:19.873Z,53.90
2022-10-31T00:28:48.895Z,56.10
2022-10-31T00:31:16.920Z,65.20
2022-10-31T00:33:45.696Z,57.20
2022-10-31T00:36:16.820Z,56.20
2022-10-31T00:38:45.660Z,52.40
2022-10-31T00:41:15.746Z,57.00
2022-10-31T00:43:44.398Z,54.60
2022-10-31T00:46:13.970Z,52.20
2022-10-31T00:48:42.896Z,52.00
2022-10-31T00:51:11.092Z,52.80
2022-10-31T00:53:39.064Z,54.30
2022-10-31T00:56:07.607Z,53.20
2022-10-31T00:58:36.439Z,56.00
2022-10-31T01:01:05.776Z,59.30
2022-10-31T01:03:36.206Z,57.10
2022-10-31T01:06:07.876Z,58.50
2022-10-31T01:08:37.208Z,63.40
2022-10-31T01:11:08.266Z,60.10
2022-10-31T01:13:37.242Z,60.30
2022-10-31T01:16:07.173Z,57.40
2022-10-31T01:18:36.492Z,51.40
2022-10-31T01:21:06.107Z,56.20
2022-10-31T01:23:35.127Z,53.30
2022-10-31T01:26:22.566Z,48.00
2022-10-31T01:28:56.496Z,54.40
2022-10-31T01:31:27.201Z,53.50
2022-10-31T01:33:56.062Z,58.00
2022-10-31T01:36:29.436Z,53.60
2022-10-31T01:38:59.771Z,50.00
2022-10-31T01:41:31.811Z,57.10
2022-10-31T01:44:02.402Z,59.90
2022-10-31T01:46:44.475Z,50.90
2022-10-31T01:49:22.708Z,63.90
2022-10-31T01:51:58.580Z,55.70
2022-10-31T01:54:32.705Z,57.60
2022-10-31T01:57:03.816Z,59.90
2022-10-31T01:59:36.212Z,53.80
2022-10-31T02:02:04.186Z,45.70
2022-10-31T02:04:32.360Z,53.60
2022-10-31T02:07:04.999Z,53.10
2022-10-31T02:09:34.019Z,49.50
2022-10-31T02:12:04.627Z,54.40
2022-10-31T02:14:32.989Z,51.80
2022-10-31T02:17:01.011Z,54.70
2022-10-31T02:19:41.787Z,47.80
2022-10-31T02:22:17.370Z,46.10
2022-10-31T02:25:04.448Z,51.00
2022-10-31T02:27:38.580Z,47.00
2022-10-31T02:30:11.104Z,51.30
2022-10-31T02:32:43.116Z,48.30
2022-10-31T02:35:17.054Z,55.50
2022-10-31T02:37:59.126Z,60.70
2022-10-31T02:40:31.785Z,56.40
2022-10-31T02:43:45.567Z,54.10
2022-10-31T02:46:33.558Z,56.20
2022-10-31T02:49:09.248Z,51.20
2022-10-31T02:51:38.921Z,50.60
2022-10-31T02:54:16.867Z,51.40
2022-10-31T02:56:44.686Z,52.80
2022-10-31T02:59:12.557Z,58.10
2022-10-31T03:01:53.508Z,52.30
2022-10-31T03:04:24.624Z,58.80
2022-10-31T03:07:01.401Z,56.00
2022-10-31T03:09:39.482Z,53.80
2022-10-31T03:12:27.677Z,63.70
2022-10-31T03:15:10.074Z,60.80
2022-10-31T03:17:52.145Z,60.20
2022-10-31T03:20:25.484Z,58.20
2022-10-31T03:22:56.222Z,59.90
2022-10-31T03:25:24.533Z,56.10
2022-10-31T03:27:58.231Z,52.20
2022-10-31T03:30:26.438Z,52.50
2022-10-31T03:33:01.213Z,52.70
2022-10-31T03:35:33.351Z,52.30
2022-10-31T03:38:06.878Z,57.50
2022-10-31T03:40:40.619Z,55.20
2022-10-31T03:43:15.666Z,55.90
2022-10-31T03:48:17.257Z,48.20
2022-10-31T03:50:59.277Z,51.80
2022-10-31T03:53:41.526Z,51.70
2022-10-31T03:56:34.731Z,49.40
2022-10-31T03:59:11.777Z,57.60
2022-10-31T04:01:44.939Z,55.30
2022-10-31T04:04:14.507Z,57.80
2022-10-31T04:06:46.517Z,56.60
2022-10-31T04:09:17.049Z,63.00
2022-10-31T04:11:52.646Z,49.10
2022-10-31T04:14:42.459Z,51.40
2022-10-31T04:17:14.624Z,53.30
2022-10-31T04:19:43.587Z,50.70
2022-10-31T04:22:11.763Z,56.00
2022-10-31T04:24:41.293Z,44.10
2022-10-31T04:27:10.067Z,47.70
2022-10-31T04:29:38.067Z,45.50
2022-10-31T04:32:06.113Z,48.80
2022-10-31T04:34:34.159Z,42.90
2022-10-31T04:37:02.143Z,48.10
2022-10-31T04:39:30.299Z,50.70
2022-10-31T04:42:31.157Z,52.40
2022-10-31T04:44:59.819Z,53.30
2022-10-31T04:47:28.235Z,57.00
2022-10-31T04:49:56.400Z,53.80
2022-10-31T04:52:24.232Z,56.60
2022-10-31T04:54:54.208Z,54.00
2022-10-31T04:57:46.089Z,61.00
2022-10-31T05:00:16.777Z,55.40
2022-10-31T05:02:50.504Z,61.80
2022-10-31T05:05:21.972Z,54.00
2022-10-31T05:07:52.949Z,51.70
2022-10-31T05:10:24.494Z,48.60
2022-10-31T05:13:04.874Z,48.30
2022-10-31T05:16:05.979Z,52.70
2022-10-31T05:18:52.248Z,45.00
2022-10-31T05:21:38.961Z,49.60
2022-10-31T05:24:07.542Z,60.50
2022-10-31T05:26:35.813Z,56.50
2022-10-31T05:29:03.666Z,56.20
2022-10-31T05:31:31.637Z,56.10
2022-10-31T05:34:00.001Z,54.80
2022-10-31T05:36:46.301Z,54.30
2022-10-31T05:39:17.148Z,58.40
2022-10-31T05:41:48.546Z,54.30
2022-10-31T05:44:20.918Z,48.80
2022-10-31T05:47:14.926Z,50.90
2022-10-31T05:50:01.462Z,45.00
2022-10-31T05:52:56.842Z,45.30
2022-10-31T05:55:33.007Z,47.10
2022-10-31T05:58:05.648Z,46.20
2022-10-31T06:00:36.117Z,48.00
2022-10-31T06:05:52.279Z,47.00
2022-10-31T06:08:25.696Z,45.10
2022-10-31T06:10:54.983Z,47.00
2022-10-31T06:13:32.734Z,47.30
2022-10-31T06:16:10.217Z,45.40
2022-10-31T06:18:38.607Z,50.70
2022-10-31T06:21:06.551Z,46.60
2022-10-31T06:23:34.296Z,49.20
2022-10-31T06:26:20.740Z,47.70
2022-10-31T06:28:49.785Z,45.50
2022-10-31T06:31:37.730Z,43.10
2022-10-31T06:34:05.836Z,44.00
2022-10-31T06:36:34.374Z,39.40
2022-10-31T06:39:02.155Z,42.40
2022-10-31T06:41:30.249Z,40.80
2022-10-31T06:43:58.526Z,41.20
2022-10-31T06:46:59.302Z,39.40
2022-10-31T06:49:47.399Z,39.20
2022-10-31T06:52:17.934Z,36.00
2022-10-31T06:54:45.953Z,40.40
2022-10-31T06:57:15.470Z,41.70
2022-10-31T06:59:43.482Z,36.60
2022-10-31T07:02:26.748Z,39.60
2022-10-31T07:04:54.816Z,37.00
2022-10-31T07:07:24.434Z,52.50
2022-10-31T07:09:52.820Z,34.60
2022-10-31T07:12:26.575Z,38.80
2022-10-31T07:14:58.577Z,43.00
2022-10-31T07:17:29.858Z,35.70
2022-10-31T07:20:00.908Z,39.80
2022-10-31T07:22:36.851Z,38.60
2022-10-31T07:25:06.370Z,37.50
2022-10-31T07:27:53.935Z,36.80
2022-10-31T07:30:22.839Z,33.40
2022-10-31T07:32:52.448Z,41.60
2022-10-31T07:35:24.299Z,39.30
2022-10-31T07:38:08.704Z,42.40
2022-10-31T07:40:36.802Z,35.80
2022-10-31T07:43:08.596Z,39.00
2022-10-31T07:45:54.695Z,36.20
2022-10-31T07:48:52.017Z,42.80
2022-10-31T07:51:42.744Z,35.50
2022-10-31T07:54:31.180Z,39.50
2022-10-31T07:56:59.020Z,35.30
2022-10-31T07:59:28.357Z,43.30
2022-10-31T08:01:56.522Z,48.10
2022-10-31T08:04:33.887Z,45.00
2022-10-31T08:07:20.876Z,37.20
2022-10-31T08:10:01.508Z,37.30
2022-10-31T08:12:32.191Z,47.80
2022-10-31T08:15:00.452Z,33.60
2022-10-31T08:17:30.775Z,39.00
2022-10-31T08:20:00.887Z,38.10
2022-10-31T08:22:42.809Z,40.30
2022-10-31T08:25:11.532Z,40.80
2022-10-31T08:27:42.047Z,43.40
2022-10-31T08:30:17.603Z,37.60
2022-10-31T08:33:19.485Z,44.30
2022-10-31T08:36:07.131Z,45.30
2022-10-31T08:39:01.806Z,51.90
2022-10-31T08:41:31.097Z,49.60
2022-10-31T08:44:00.210Z,57.60
2022-10-31T08:46:28.347Z,68.10
2022-10-31T08:48:56.574Z,61.30
2022-10-31T08:51:24.670Z,68.20
2022-10-31T08:53:55.000Z,52.10
2022-10-31T08:56:35.186Z,52.00
2022-10-31T08:59:05.826Z,58.20
2022-10-31T09:01:52.505Z,56.30
2022-10-31T09:04:20.628Z,64.40
2022-10-31T09:07:19.768Z,59.90
2022-10-31T09:09:37.393Z,58.80
2022-10-31T09:12:05.669Z,55.80
2022-10-31T09:14:52.581Z,61.10
2022-10-31T09:17:35.189Z,67.30
2022-10-31T09:20:22.510Z,58.80
2022-10-31T09:23:03.666Z,49.90
2022-10-31T09:25:35.295Z,61.70
2022-10-31T09:28:26.733Z,58.70
2022-10-31T09:30:56.126Z,52.20
2022-10-31T09:33:43.285Z,52.10
2022-10-31T09:36:32.121Z,58.50
2022-10-31T09:39:00.221Z,53.20
2022-10-31T09:42:09.238Z,60.30
2022-10-31T09:45:16.391Z,66.20
2022-10-31T09:50:42.686Z,64.60
2022-10-31T09:53:59.292Z,62.60
2022-10-31T09:56:29.185Z,66.80
2022-10-31T09:59:06.732Z,59.60
2022-10-31T10:01:48.711Z,56.00
2022-10-31T10:04:40.678Z,57.20
2022-10-31T10:07:48.449Z,55.80
2022-10-31T10:10:58.218Z,51.30
2022-10-31T10:14:04.900Z,56.30
2022-10-31T10:17:14.304Z,60.60
2022-10-31T10:19:54.912Z,63.50
2022-10-31T10:22:48.810Z,60.80
2022-10-31T10:25:24.412Z,47.10
2022-10-31T10:28:19.260Z,61.40
2022-10-31T10:30:56.192Z,53.80
2022-10-31T10:33:47.656Z,57.50
2022-10-31T10:36:22.770Z,52.80
2022-10-31T10:39:00.004Z,55.40
2022-10-31T10:41:34.477Z,56.90
2022-10-31T10:44:06.536Z,58.30
2022-10-31T10:46:53.107Z,58.80
2022-10-31T10:49:52.340Z,71.40
2022-10-31T10:52:50.921Z,62.60
2022-10-31T10:55:58.236Z,58.80
2022-10-31T10:58:26.424Z,55.30
2022-10-31T11:00:56.633Z,51.70
2022-10-31T11:03:25.545Z,53.40
2022-10-31T11:06:03.021Z,47.80
2022-10-31T11:08:32.651Z,52.20
2022-10-31T11:11:19.295Z,42.50
2022-10-31T11:13:50.128Z,45.80
2022-10-31T11:16:27.228Z,60.30
2022-10-31T11:19:08.914Z,56.70
2022-10-31T11:21:37.793Z,64.00
2022-10-31T11:24:11.879Z,57.90
2022-10-31T11:26:42.009Z,51.10
2022-10-31T11:29:26.348Z,58.80
2022-10-31T11:31:57.267Z,59.80
2022-10-31T11:34:38.522Z,57.30
2022-10-31T11:37:19.837Z,47.70
2022-10-31T11:39:55.579Z,51.60
2022-10-31T11:42:28.318Z,50.60
2022-10-31T11:44:57.655Z,52.60
2022-10-31T11:47:32.796Z,55.70
2022-10-31T11:50:10.308Z,67.10
2022-10-31T11:52:41.354Z,58.30
2022-10-31T11:55:29.919Z,61.70
2022-10-31T11:57:59.250Z,57.40
2022-10-31T12:00:32.700Z,49.80
2022-10-31T12:03:31.532Z,62.60
2022-10-31T12:06:08.637Z,67.70
2022-10-31T12:08:38.580Z,66.80
2022-10-31T12:11:33.031Z,57.30
2022-10-31T12:14:33.056Z,54.60
2022-10-31T12:17:11.020Z,59.40
2022-10-31T12:20:20.855Z,56.60
2022-10-31T12:23:17.212Z,66.90
2022-10-31T12:26:14.946Z,68.00
2022-10-31T12:29:09.136Z,57.90
2022-10-31T12:31:55.201Z,67.90
2022-10-31T12:34:26.382Z,58.40
2022-10-31T12:37:28.649Z,66.60
2022-10-31T12:40:39.527Z,61.00
2022-10-31T12:43:10.238Z,55.00
2022-10-31T12:45:55.862Z,67.00
2022-10-31T12:49:05.444Z,66.00
2022-10-31T12:51:52.186Z,62.10
2022-10-31T12:54:41.573Z,72.50
2022-10-31T12:57:28.875Z,57.50
2022-10-31T13:00:14.065Z,63.50
2022-10-31T13:02:42.018Z,68.60
2022-10-31T13:05:32.356Z,64.70
2022-10-31T13:08:13.744Z,69.80
2022-10-31T13:10:50.044Z,63.00
2022-10-31T13:13:28.225Z,72.40
2022-10-31T13:16:11.239Z,69.60
2022-10-31T13:18:46.389Z,67.90
2022-10-31T13:21:22.065Z,71.40
2022-10-31T13:23:52.877Z,64.90
2022-10-31T13:26:44.702Z,65.90
2022-10-31T13:29:26.935Z,74.80
2022-10-31T13:31:58.467Z,65.70
2022-10-31T13:34:36.534Z,66.00
2022-10-31T13:37:29.194Z,66.80
2022-10-31T13:40:06.385Z,64.30
2022-10-31T13:43:01.229Z,98.80
2022-10-31T13:45:29.675Z,73.90
2022-10-31T13:47:59.236Z,60.90
2022-10-31T13:50:33.399Z,59.60
2022-10-31T13:53:11.815Z,63.30
2022-10-31T13:55:43.288Z,66.00
2022-10-31T13:58:20.606Z,57.40
2022-10-31T14:01:00.692Z,64.30
2022-10-31T14:03:57.442Z,62.50
2022-10-31T14:06:17.968Z,64.10
2022-10-31T14:08:52.853Z,56.80
2022-10-31T14:11:32.931Z,58.60
2022-10-31T14:14:13.012Z,66.60
2022-10-31T14:16:45.290Z,67.30
2022-10-31T14:19:19.651Z,69.60
2022-10-31T14:21:49.692Z,63.80
2022-10-31T14:24:24.322Z,64.20
2022-10-31T14:27:22.447Z,72.10
2022-10-31T14:29:50.882Z,59.20
2022-10-31T14:32:28.889Z,69.00
2022-10-31T14:34:58.796Z,58.60
2022-10-31T14:37:43.371Z,74.80
2022-10-31T14:40:36.457Z,65.80
2022-10-31T14:43:33.658Z,76.00
2022-10-31T14:46:19.177Z,73.80
2022-10-31T14:49:11.784Z,75.20
2022-10-31T14:51:45.325Z,69.50
2022-10-31T14:54:18.569Z,67.80
2022-10-31T14:56:54.549Z,76.40
2022-10-31T14:59:28.753Z,75.20
2022-10-31T15:02:20.316Z,79.00
2022-10-31T15:04:49.466Z,83.30
2022-10-31T15:07:24.993Z,86.40
2022-10-31T15:10:07.154Z,77.30
2022-10-31T15:12:39.198Z,83.70
2022-10-31T15:15:27.782Z,72.50
2022-10-31T15:17:59.753Z,75.20
2022-10-31T15:20:32.655Z,77.10
2022-10-31T15:23:01.649Z,74.60
2022-10-31T15:25:36.399Z,70.20
2022-10-31T15:28:15.106Z,65.40
2022-10-31T15:30:56.501Z,75.30
2022-10-31T15:33:27.900Z,75.40
2022-10-31T15:36:03.902Z,74.50
2022-10-31T15:38:32.981Z,72.20
2022-10-31T15:41:19.311Z,75.20
2022-10-31T15:43:49.365Z,89.40
2022-10-31T15:46:18.285Z,88.50
2022-10-31T15:48:48.687Z,89.00
2022-10-31T15:51:17.136Z,90.20
2022-10-31T15:53:50.927Z,83.70
2022-10-31T15:56:25.496Z,89.20
2022-10-31T15:58:55.468Z,77.90
2022-10-31T16:01:30.139Z,85.00
2022-10-31T16:04:13.916Z,72.40
2022-10-31T16:06:43.088Z,75.20
2022-10-31T16:09:25.115Z,79.40
2022-10-31T16:11:55.448Z,82.30
2022-10-31T16:14:29.304Z,66.20
2022-10-31T16:17:00.194Z,92.80
2022-10-31T16:19:35.428Z,89.50
2022-10-31T16:22:20.973Z,100.40
2022-10-31T16:24:55.000Z,89.30
2022-10-31T16:27:29.558Z,80.20
2022-10-31T16:30:02.558Z,79.60
2022-10-31T16:32:52.248Z,69.90
2022-10-31T16:35:26.551Z,74.00
2022-10-31T16:37:55.776Z,64.10
2022-10-31T16:40:24.959Z,65.50
2022-10-31T16:42:53.807Z,57.90
2022-10-31T16:45:24.797Z,74.20
2022-10-31T16:47:53.011Z,69.90
2022-10-31T16:50:27.019Z,61.20
2022-10-31T16:55:58.760Z,69.50
2022-10-31T16:58:30.892Z,68.70
2022-10-31T17:00:59.941Z,69.80
2022-10-31T17:03:29.844Z,75.30
2022-10-31T17:05:58.060Z,72.20
2022-10-31T17:08:26.475Z,75.30
2022-10-31T17:10:56.662Z,71.80
2022-10-31T17:13:28.987Z,68.70
2022-10-31T17:16:00.975Z,71.80
2022-10-31T17:18:29.702Z,67.60
2022-10-31T17:21:03.715Z,65.30
2022-10-31T17:23:33.510Z,61.40
2022-10-31T17:26:01.599Z,64.40
2022-10-31T17:28:29.501Z,70.80
2022-10-31T17:30:59.506Z,62.90
2022-10-31T17:33:28.143Z,61.00
2022-10-31T17:35:56.203Z,58.90
2022-10-31T17:38:24.570Z,63.80
2022-10-31T17:40:52.438Z,70.50
2022-10-31T17:43:20.574Z,76.70
2022-10-31T17:45:48.496Z,60.60
2022-10-31T17:48:16.679Z,71.50
2022-10-31T17:50:44.558Z,74.10
2022-10-31T17:53:12.403Z,65.20
2022-10-31T17:55:40.276Z,67.70
2022-10-31T17:58:08.664Z,59.90
2022-10-31T18:00:36.739Z,66.40
2022-10-31T18:03:05.448Z,64.10
2022-10-31T18:05:34.720Z,59.60
2022-10-31T18:08:04.364Z,59.60
2022-10-31T18:10:33.046Z,58.20
2022-10-31T18:13:01.479Z,58.20
2022-10-31T18:15:29.626Z,64.10
2022-10-31T18:17:57.925Z,66.00
2022-10-31T18:20:26.114Z,60.10
2022-10-31T18:22:54.477Z,63.30
2022-10-31T18:25:22.445Z,62.60
2022-10-31T18:27:50.352Z,63.10
2022-10-31T18:30:18.915Z,58.80
2022-10-31T18:32:52.586Z,65.00
2022-10-31T18:35:20.875Z,55.70
2022-10-31T18:37:49.016Z,67.00
2022-10-31T18:40:17.352Z,64.10
2022-10-31T18:42:45.228Z,55.30
2022-10-31T18:45:31.335Z,57.80
2022-10-31T18:48:01.209Z,58.20
2022-10-31T18:50:29.294Z,57.80
2022-10-31T18:52:57.100Z,54.50
2022-10-31T18:55:24.836Z,53.30
2022-10-31T18:57:52.687Z,63.00
2022-10-31T19:00:20.613Z,56.30
2022-10-31T19:02:48.425Z,55.20
2022-10-31T19:05:16.348Z,61.30
2022-10-31T19:07:44.586Z,61.10
2022-10-31T19:10:12.460Z,58.50
2022-10-31T19:12:40.300Z,58.20
2022-10-31T19:15:08.580Z,62.20
2022-10-31T19:17:36.457Z,52.80
2022-10-31T19:20:04.491Z,56.10
2022-10-31T19:22:32.428Z,57.20
2022-10-31T19:25:00.268Z,51.10
2022-10-31T19:27:28.369Z,47.60
2022-10-31T19:29:56.394Z,54.30
2022-10-31T19:32:24.450Z,54.00
2022-10-31T19:34:52.286Z,52.20
2022-10-31T19:37:20.114Z,51.20
2022-10-31T19:39:48.026Z,46.70
2022-10-31T19:42:16.460Z,55.00
2022-10-31T19:44:44.376Z,48.90
2022-10-31T19:47:12.457Z,57.60
2022-10-31T19:49:40.302Z,57.40
2022-10-31T19:52:08.136Z,58.70
2022-10-31T19:54:36.038Z,56.50
2022-10-31T19:57:03.975Z,59.60
2022-10-31T19:59:36.563Z,54.80
2022-10-31T20:02:07.241Z,59.70
2022-10-31T20:04:35.073Z,58.90
2022-10-31T20:07:02.947Z,53.50
2022-10-31T20:09:30.758Z,58.50
2022-10-31T20:11:58.613Z,52.40
2022-10-31T20:14:26.480Z,41.80
2022-10-31T20:16:54.372Z,44.20
2022-10-31T20:19:24.214Z,50.90
2022-10-31T20:21:52.341Z,53.60
2022-10-31T20:24:20.355Z,44.20
2022-10-31T20:26:48.195Z,49.80
2022-10-31T20:29:16.355Z,51.20
2022-10-31T20:31:45.820Z,57.10
2022-10-31T20:34:14.476Z,47.10
2022-10-31T20:36:42.234Z,53.30
2022-10-31T20:39:10.339Z,47.70
2022-10-31T20:41:39.580Z,60.30
2022-10-31T20:44:07.601Z,57.60
2022-10-31T20:46:35.397Z,56.20
2022-10-31T20:49:03.844Z,53.10
2022-10-31T20:51:31.980Z,51.70
2022-10-31T20:54:00.575Z,52.10
2022-10-31T20:56:30.176Z,44.70
2022-10-31T20:58:58.347Z,45.90
2022-10-31T21:01:28.973Z,52.90
2022-10-31T21:03:58.783Z,40.20
2022-10-31T21:06:27.489Z,49.20
2022-10-31T21:08:55.734Z,47.50
2022-10-31T21:11:25.694Z,46.70
2022-10-31T21:13:54.655Z,47.10
2022-10-31T21:16:31.147Z,48.50
2022-10-31T21:19:00.889Z,54.70
2022-10-31T21:21:34.486Z,47.60
2022-10-31T21:24:09.084Z,45.30
2022-10-31T21:26:39.997Z,45.60
2022-10-31T21:29:09.908Z,45.00
2022-10-31T21:31:39.371Z,42.80
2022-10-31T21:34:07.809Z,40.80
2022-10-31T21:36:36.572Z,47.60
2022-10-31T21:39:06.219Z,41.60
2022-10-31T21:41:34.481Z,39.00
2022-10-31T21:44:02.652Z,47.70
2022-10-31T21:46:32.396Z,43.90
2022-10-31T21:49:02.768Z,43.20
2022-10-31T21:51:33.672Z,43.30
2022-10-31T21:54:20.692Z,41.30
2022-10-31T21:56:49.766Z,42.80
2022-10-31T21:59:17.672Z,47.10
2022-10-31T22:01:45.587Z,42.70
2022-10-31T22:04:14.835Z,40.50
2022-10-31T22:06:42.788Z,48.40
2022-10-31T22:09:13.198Z,51.90
2022-10-31T22:11:42.145Z,46.00
2022-10-31T22:14:13.041Z,43.60
2022-10-31T22:16:41.471Z,45.60
2022-10-31T22:19:12.611Z,43.60
2022-10-31T22:21:43.447Z,46.50
2022-10-31T22:24:12.423Z,42.00
2022-10-31T22:26:40.532Z,46.40
2022-10-31T22:29:14.480Z,46.20
2022-10-31T22:31:44.566Z,43.90
2022-10-31T22:34:14.793Z,41.00
2022-10-31T22:36:43.318Z,38.60
2022-10-31T22:39:15.862Z,40.80
2022-10-31T22:41:43.633Z,35.30
2022-10-31T22:44:11.476Z,33.80
2022-10-31T22:46:40.240Z,36.50
2022-10-31T22:49:11.463Z,38.30
2022-10-31T22:51:40.987Z,40.10
2022-10-31T22:54:13.307Z,36.50
2022-10-31T22:56:41.176Z,40.70
2022-10-31T22:59:13.852Z,38.30
2022-10-31T23:01:44.914Z,39.70
2022-10-31T23:04:14.945Z,39.10
2022-10-31T23:06:43.182Z,45.00
2022-10-31T23:09:14.854Z,35.20
2022-10-31T23:11:43.072Z,45.70
2022-10-31T23:14:14.534Z,41.00
2022-10-31T23:16:54.970Z,46.40
2022-10-31T23:19:31.731Z,41.10
2022-10-31T23:22:03.152Z,40.00
2022-10-31T23:24:39.917Z,38.70
2022-10-31T23:27:21.140Z,40.60
2022-10-31T23:29:59.339Z,37.50
2022-10-31T23:32:30.270Z,35.80
2022-10-31T23:35:00.184Z,36.10
2022-10-31T23:37:30.845Z,39.70
2022-10-31T23:39:59.336Z,37.90
2022-10-31T23:42:28.321Z,39.60
2022-10-31T23:44:56.518Z,38.10
2022-10-31T23:47:24.388Z,37.30
2022-10-31T23:49:52.262Z,39.10
2022-10-31T23:52:20.185Z,44.10
2022-10-31T23:54:48.272Z,39.40
2022-10-31T23:57:16.858Z,37.20
2022-10-31T23:59:44.822Z,42.50
